Terminal Aerodrome Forecast
Issued by NWS Grand Rapids, MI

Home | Current Version | Previous Version | Text Only | Print | Product List | Glossary On
Versions: 1 2 3 4 5 6 7 8 9 10 11 12 13 14 15 16 17
581
FTUS43 KGRR 272336
TAFGRR
TAF
KGRR 272336Z 2800/2824 27013KT P6SM FEW050 FEW250
     FM280100 24006KT P6SM SKC
     FM281300 19008KT P6SM SKC
     FM281500 20012G20KT P6SM SCT050 SCT120 SCT250
     FM281800 19015G25KT P6SM BKN060 BKN120 BKN250=

USA.gov is the U.S. government's official web portal to all federal, state and local government web resources and services.